Sao Joao do Jaguaribe, Brazil
Current Conditions -  °F | °C
As of 11:00 AM on Thursday 30 Oct 2014 (Local Time) from SBFZ Reporting Station
Scattered Clouds Scattered Clouds  
Wind Chill: 86°   Ceiling: Unl
Heat Index: 88°   Visibility: 6mi
Dew Point: 66°   Wind: 23mph
Humidity: 51%   Direction: 100°E
Pressure: 29.91"   Gusts: NA
Location:  5.27°S, 38.27°W
Report Text: SBFZ 301400Z 10020KT 9999 SCT025 30/19 Q1013
Loading
Personal Weather Stations






























Interactive Weather Map
Tropical Storm Tracking
New forecast layout! Learn more

10-Day Weather Forecast

Advertisements
Track Severe Weather on mobile